createdAt,value
2023-02-06T00:01:59.883Z,58.65
2023-02-06T00:04:01.876Z,58.52
2023-02-06T00:06:03.849Z,58.73
2023-02-06T00:08:07.281Z,58.50
2023-02-06T00:10:09.842Z,58.30
2023-02-06T00:12:14.117Z,58.61
2023-02-06T00:14:15.911Z,58.59
2023-02-06T00:16:21.228Z,58.85
2023-02-06T00:18:23.153Z,58.59
2023-02-06T00:20:24.977Z,58.80
2023-02-06T00:22:27.174Z,58.76
2023-02-06T00:24:29.246Z,58.70
2023-02-06T00:26:33.930Z,58.85
2023-02-06T00:28:35.744Z,58.99
2023-02-06T00:30:37.683Z,58.70
2023-02-06T00:32:39.533Z,58.76
2023-02-06T00:34:41.365Z,59.08
2023-02-06T00:36:43.265Z,59.04
2023-02-06T00:38:45.679Z,58.77
2023-02-06T00:40:47.884Z,58.89
2023-02-06T00:42:49.626Z,58.41
2023-02-06T00:44:51.356Z,59.00
2023-02-06T00:46:53.236Z,59.00
2023-02-06T00:48:55.002Z,58.92
2023-02-06T00:50:56.796Z,59.42
2023-02-06T00:52:58.520Z,59.66
2023-02-06T00:55:00.318Z,59.46
2023-02-06T00:57:02.084Z,59.13
2023-02-06T00:59:04.087Z,59.71
2023-02-06T01:01:05.967Z,59.44
2023-02-06T01:03:07.875Z,59.38
2023-02-06T01:05:09.826Z,59.78
2023-02-06T01:07:11.647Z,59.30
2023-02-06T01:09:13.762Z,59.53
2023-02-06T01:11:18.742Z,59.37
2023-02-06T01:13:20.556Z,59.18
2023-02-06T01:15:22.321Z,59.45
2023-02-06T01:17:24.409Z,59.67
2023-02-06T01:19:28.236Z,59.07
2023-02-06T01:21:30.374Z,59.89
2023-02-06T01:23:32.187Z,59.51
2023-02-06T01:25:34.373Z,59.83
2023-02-06T01:27:37.817Z,60.01
2023-02-06T01:29:39.603Z,60.11
2023-02-06T01:31:43.814Z,60.17
2023-02-06T01:33:46.663Z,60.11
2023-02-06T01:35:55.508Z,60.45
2023-02-06T01:37:57.489Z,60.03
2023-02-06T01:39:59.243Z,60.23
2023-02-06T01:42:01.037Z,60.15
2023-02-06T01:44:13.873Z,60.21
2023-02-06T01:46:15.785Z,59.85
2023-02-06T01:48:22.205Z,60.33
2023-02-06T01:50:24.188Z,59.78
2023-02-06T01:52:30.485Z,60.18
2023-02-06T01:54:35.192Z,60.22
2023-02-06T01:56:43.675Z,59.85
2023-02-06T01:58:51.831Z,60.38
2023-02-06T02:00:57.920Z,60.52
2023-02-06T02:03:01.304Z,60.58
2023-02-06T02:05:05.812Z,60.73
2023-02-06T02:07:15.566Z,61.15
2023-02-06T02:09:18.802Z,61.42
2023-02-06T02:11:25.530Z,61.51
2023-02-06T02:13:27.580Z,61.77
2023-02-06T02:15:40.097Z,62.00
2023-02-06T02:17:48.891Z,61.94
2023-02-06T02:19:55.168Z,61.51
2023-02-06T02:22:01.460Z,62.08
2023-02-06T02:24:09.494Z,61.96
2023-02-06T02:26:30.033Z,61.89
2023-02-06T02:28:35.452Z,62.30
2023-02-06T02:30:42.257Z,62.24
2023-02-06T02:32:51.010Z,62.45
2023-02-06T02:35:03.147Z,62.75
2023-02-06T02:37:11.144Z,62.29
2023-02-06T02:39:16.862Z,62.48
2023-02-06T02:41:27.486Z,62.22
2023-02-06T02:43:35.451Z,62.45
2023-02-06T02:45:44.036Z,62.15
2023-02-06T02:47:56.206Z,62.37
2023-02-06T02:50:02.873Z,62.87
2023-02-06T02:52:05.343Z,63.62
2023-02-06T02:54:09.799Z,62.96
2023-02-06T02:56:17.893Z,63.29
2023-02-06T02:58:23.678Z,63.11
2023-02-06T03:00:26.661Z,62.92
2023-02-06T03:02:33.869Z,62.81
2023-02-06T03:04:42.654Z,63.00
2023-02-06T03:06:58.847Z,62.69
2023-02-06T03:09:09.218Z,62.57
2023-02-06T03:11:16.875Z,63.23
2023-02-06T03:13:24.619Z,62.81
2023-02-06T03:15:27.143Z,62.58
2023-02-06T03:17:34.698Z,62.62
2023-02-06T03:19:44.447Z,62.40
2023-02-06T03:21:48.415Z,62.33
2023-02-06T03:23:54.735Z,62.52
2023-02-06T03:26:00.886Z,62.49
2023-02-06T03:28:07.675Z,62.64
2023-02-06T03:30:14.083Z,62.51
2023-02-06T03:32:24.354Z,62.13
2023-02-06T03:34:32.209Z,62.23
2023-02-06T03:36:34.375Z,61.78
2023-02-06T03:38:36.211Z,61.70
2023-02-06T03:40:40.983Z,61.56
2023-02-06T03:42:48.736Z,61.46
2023-02-06T03:44:57.575Z,61.33
2023-02-06T03:47:00.939Z,61.42
2023-02-06T03:49:07.434Z,61.52
2023-02-06T03:51:18.143Z,61.15
2023-02-06T03:53:22.461Z,61.03
2023-02-06T03:55:25.760Z,61.25
2023-02-06T03:57:30.010Z,61.54
2023-02-06T03:59:33.229Z,61.84
2023-02-06T04:01:40.307Z,61.87
2023-02-06T04:03:42.165Z,61.70
2023-02-06T04:05:44.014Z,61.68
2023-02-06T04:07:46.059Z,61.92
2023-02-06T04:09:48.170Z,62.44
2023-02-06T04:11:50.562Z,62.54
2023-02-06T04:13:54.351Z,62.78
2023-02-06T04:15:56.567Z,62.93
2023-02-06T04:18:01.117Z,62.58
2023-02-06T04:20:05.391Z,62.62
2023-02-06T04:22:08.676Z,62.81
2023-02-06T04:24:12.666Z,63.08
2023-02-06T04:26:14.515Z,63.18
2023-02-06T04:28:16.367Z,63.19
2023-02-06T04:30:18.570Z,63.43
2023-02-06T04:32:21.084Z,63.51
2023-02-06T04:34:23.021Z,63.44
2023-02-06T04:36:24.774Z,63.60
2023-02-06T04:38:26.877Z,63.74
2023-02-06T04:40:31.645Z,63.70
2023-02-06T04:42:33.411Z,63.47
2023-02-06T04:44:35.350Z,63.63
2023-02-06T04:46:37.172Z,63.47
2023-02-06T04:48:39.381Z,63.98
2023-02-06T04:50:41.209Z,64.10
2023-02-06T04:52:45.295Z,64.39
2023-02-06T04:54:47.322Z,63.63
2023-02-06T04:56:49.266Z,63.91
2023-02-06T04:58:51.549Z,64.12
2023-02-06T05:00:53.328Z,63.99
2023-02-06T05:02:55.100Z,63.62
2023-02-06T05:04:56.920Z,63.79
2023-02-06T05:06:58.708Z,64.16
2023-02-06T05:09:00.780Z,64.04
2023-02-06T05:11:04.101Z,63.92
2023-02-06T05:13:06.360Z,63.82
2023-02-06T05:15:09.147Z,63.96
2023-02-06T05:17:10.969Z,63.73
2023-02-06T05:19:12.875Z,64.19
2023-02-06T05:21:15.415Z,64.45
2023-02-06T05:23:19.379Z,64.40
2023-02-06T05:25:21.202Z,64.53
2023-02-06T05:27:23.063Z,64.32
2023-02-06T05:29:26.097Z,64.89
2023-02-06T05:31:27.983Z,64.69
2023-02-06T05:33:30.655Z,64.64
2023-02-06T05:35:32.483Z,64.59
2023-02-06T05:37:34.250Z,64.27
2023-02-06T05:39:36.140Z,64.25
2023-02-06T05:41:37.945Z,64.36
2023-02-06T05:43:39.793Z,64.03
2023-02-06T05:45:43.961Z,64.08
2023-02-06T05:47:45.766Z,63.93
2023-02-06T05:49:48.409Z,63.63
2023-02-06T05:51:50.238Z,64.30
2023-02-06T05:53:54.288Z,64.22
2023-02-06T05:55:56.979Z,64.05
2023-02-06T05:57:58.968Z,64.04
2023-02-06T06:00:00.806Z,64.16
2023-02-06T06:02:03.149Z,64.20
2023-02-06T06:04:05.149Z,64.28
2023-02-06T06:06:10.040Z,64.74
2023-02-06T06:08:16.266Z,64.75
2023-02-06T06:10:18.431Z,64.83
2023-02-06T06:12:20.281Z,64.81
2023-02-06T06:14:22.157Z,64.89
2023-02-06T06:16:23.946Z,64.73
2023-02-06T06:18:26.881Z,65.04
2023-02-06T06:20:29.945Z,64.79
2023-02-06T06:22:31.820Z,64.50
2023-02-06T06:24:34.017Z,64.24
2023-02-06T06:26:36.417Z,64.80
2023-02-06T06:28:39.144Z,64.30
2023-02-06T06:30:41.641Z,64.53
2023-02-06T06:32:43.492Z,64.84
2023-02-06T06:34:45.296Z,65.06
2023-02-06T06:36:47.301Z,64.93
2023-02-06T06:38:49.170Z,64.87
2023-02-06T06:40:51.993Z,65.05
2023-02-06T06:42:57.091Z,65.20
2023-02-06T06:44:59.025Z,65.21
2023-02-06T06:47:00.835Z,65.04
2023-02-06T06:49:02.691Z,64.82
2023-02-06T06:51:06.370Z,64.61
2023-02-06T06:53:08.231Z,64.26
2023-02-06T06:55:11.006Z,64.30
2023-02-06T06:57:13.295Z,64.56
2023-02-06T06:59:15.394Z,64.20
2023-02-06T07:01:19.320Z,64.47
2023-02-06T07:03:23.913Z,64.23
2023-02-06T07:05:26.048Z,63.96
2023-02-06T07:07:27.865Z,64.19
2023-02-06T07:09:30.135Z,64.39
2023-02-06T07:11:32.086Z,64.71
2023-02-06T07:13:36.453Z,64.55
2023-02-06T07:15:38.490Z,64.02
2023-02-06T07:17:40.512Z,64.05
2023-02-06T07:19:42.390Z,64.46
2023-02-06T07:21:44.425Z,64.53
2023-02-06T07:23:46.554Z,64.63
2023-02-06T07:25:51.141Z,64.77
2023-02-06T07:27:52.936Z,64.92
2023-02-06T07:29:54.802Z,64.85
2023-02-06T07:31:57.138Z,65.13
2023-02-06T07:34:00.002Z,65.11
2023-02-06T07:36:04.035Z,65.07
2023-02-06T07:38:06.173Z,65.03
2023-02-06T07:40:09.291Z,65.17
2023-02-06T07:42:12.436Z,64.96
2023-02-06T07:44:14.741Z,64.55
2023-02-06T07:46:16.800Z,64.30
2023-02-06T07:48:18.846Z,64.27
2023-02-06T07:50:21.206Z,64.27
2023-02-06T07:52:23.196Z,64.35
2023-02-06T07:54:25.006Z,64.10
2023-02-06T07:56:27.157Z,64.00
2023-02-06T07:58:29.051Z,64.05
2023-02-06T08:00:31.004Z,63.82
2023-02-06T08:02:33.061Z,63.80
2023-02-06T08:04:37.309Z,64.26
2023-02-06T08:06:43.160Z,64.10
2023-02-06T08:08:45.691Z,64.23
2023-02-06T08:10:48.192Z,64.38
2023-02-06T08:12:50.150Z,64.63
2023-02-06T08:14:52.086Z,64.34
2023-02-06T08:16:54.389Z,64.88
2023-02-06T08:18:56.442Z,64.85
2023-02-06T08:21:04.101Z,65.01
2023-02-06T08:23:08.115Z,65.41
2023-02-06T08:25:10.115Z,65.08
2023-02-06T08:27:12.364Z,65.15
2023-02-06T08:29:14.609Z,65.08
2023-02-06T08:31:21.769Z,65.49
2023-02-06T08:33:24.730Z,65.47
2023-02-06T08:35:26.830Z,65.43
2023-02-06T08:37:29.068Z,65.15
2023-02-06T08:39:31.288Z,65.13
2023-02-06T08:41:37.417Z,64.91
2023-02-06T08:43:39.561Z,64.64
2023-02-06T08:45:44.646Z,64.41
2023-02-06T08:47:46.730Z,64.34
2023-02-06T08:49:51.210Z,64.21
2023-02-06T08:51:54.218Z,64.09
2023-02-06T08:53:59.105Z,64.01
2023-02-06T08:56:03.801Z,64.21
2023-02-06T08:58:06.261Z,63.92
2023-02-06T09:00:09.273Z,63.84
2023-02-06T09:02:11.819Z,64.12
2023-02-06T09:04:14.953Z,64.04
2023-02-06T09:06:16.995Z,63.99
2023-02-06T09:08:19.103Z,63.80
2023-02-06T09:10:27.364Z,63.95
2023-02-06T09:12:30.094Z,64.11
2023-02-06T09:14:32.525Z,64.18
2023-02-06T09:16:37.781Z,64.54
2023-02-06T09:18:40.701Z,64.38
2023-02-06T09:20:42.725Z,64.88
2023-02-06T09:22:45.027Z,64.47
2023-02-06T09:24:46.914Z,64.38
2023-02-06T09:27:04.009Z,64.30
2023-02-06T09:29:08.411Z,63.58
2023-02-06T09:31:11.402Z,63.45
2023-02-06T09:33:13.507Z,63.79
2023-02-06T09:35:17.891Z,63.39
2023-02-06T09:37:19.754Z,63.41
2023-02-06T09:39:24.404Z,63.33
2023-02-06T09:41:28.278Z,63.17
2023-02-06T09:43:32.339Z,63.23
2023-02-06T09:45:36.909Z,63.17
2023-02-06T09:47:47.375Z,62.36
2023-02-06T09:49:53.684Z,62.18
2023-02-06T09:52:05.182Z,62.03
2023-02-06T09:54:09.179Z,61.58
2023-02-06T09:56:15.639Z,61.23
2023-02-06T09:58:23.833Z,60.64
2023-02-06T10:00:29.098Z,60.53
2023-02-06T10:02:46.489Z,60.31
2023-02-06T10:04:58.203Z,60.90
2023-02-06T10:07:14.051Z,60.86
2023-02-06T10:09:19.194Z,60.83
2023-02-06T10:11:27.483Z,60.85
2023-02-06T10:13:36.174Z,60.58
2023-02-06T10:15:46.583Z,60.63
2023-02-06T10:17:55.419Z,59.99
2023-02-06T10:20:03.859Z,60.34
2023-02-06T10:22:13.821Z,59.98
2023-02-06T10:24:19.233Z,59.89
2023-02-06T10:26:23.054Z,60.16
2023-02-06T10:28:28.582Z,59.50
2023-02-06T10:30:51.453Z,59.52
2023-02-06T10:33:01.788Z,59.94
2023-02-06T10:35:14.690Z,59.47
2023-02-06T10:37:27.741Z,60.11
2023-02-06T10:39:33.104Z,59.41
2023-02-06T10:41:39.553Z,59.36
2023-02-06T10:43:48.160Z,59.47
2023-02-06T10:46:00.064Z,58.98
2023-02-06T10:48:11.102Z,58.54
2023-02-06T10:50:19.496Z,58.82
2023-02-06T10:52:25.149Z,58.59
2023-02-06T10:54:31.521Z,58.54
2023-02-06T10:56:40.408Z,58.36
2023-02-06T10:58:52.331Z,57.83
2023-02-06T11:00:56.365Z,58.14
2023-02-06T11:03:07.514Z,57.91
2023-02-06T11:05:16.321Z,57.23
2023-02-06T11:07:25.247Z,57.76
2023-02-06T11:09:27.667Z,57.37
2023-02-06T11:11:33.611Z,57.53
2023-02-06T11:13:38.669Z,57.05
2023-02-06T11:15:47.149Z,56.92
2023-02-06T11:17:51.730Z,56.73
2023-02-06T11:19:56.760Z,56.36
2023-02-06T11:22:02.362Z,56.00
2023-02-06T11:24:10.442Z,55.35
2023-02-06T11:26:17.020Z,54.53
2023-02-06T11:28:21.246Z,54.42
2023-02-06T11:30:25.163Z,54.66
2023-02-06T11:32:35.990Z,54.04
2023-02-06T11:34:41.206Z,53.01
2023-02-06T11:36:43.268Z,53.19
2023-02-06T11:38:56.441Z,53.25
2023-02-06T11:41:04.547Z,52.81
2023-02-06T11:43:18.221Z,53.41
2023-02-06T11:45:26.458Z,52.23
2023-02-06T11:47:37.401Z,52.27
2023-02-06T11:49:39.840Z,51.79
2023-02-06T11:51:46.182Z,51.77
2023-02-06T11:53:54.761Z,52.09
2023-02-06T11:56:00.305Z,52.07
2023-02-06T11:58:07.923Z,50.43
2023-02-06T12:00:15.975Z,49.77
2023-02-06T12:02:25.467Z,49.04
2023-02-06T12:04:35.153Z,49.62
2023-02-06T12:06:40.487Z,49.82
2023-02-06T12:08:49.001Z,49.01
2023-02-06T12:10:58.587Z,48.59
2023-02-06T12:13:08.516Z,48.34
2023-02-06T12:15:39.951Z,48.21
2023-02-06T12:17:44.103Z,47.67
2023-02-06T12:20:00.807Z,46.48
2023-02-06T12:22:12.526Z,45.79
2023-02-06T12:24:20.732Z,45.40
2023-02-06T12:26:27.165Z,45.59
2023-02-06T12:28:35.347Z,45.95
2023-02-06T12:30:43.664Z,45.12
2023-02-06T12:32:51.168Z,44.74
2023-02-06T12:35:00.933Z,44.14
2023-02-06T12:37:15.965Z,44.27
2023-02-06T12:39:22.084Z,44.34
2023-02-06T12:41:28.536Z,44.01
2023-02-06T12:43:34.604Z,43.29
2023-02-06T12:45:42.770Z,42.42
2023-02-06T12:47:53.552Z,42.22
2023-02-06T12:50:00.900Z,42.30
2023-02-06T12:52:14.458Z,41.81
2023-02-06T12:54:23.279Z,41.61
2023-02-06T12:56:28.354Z,41.62
2023-02-06T12:58:36.686Z,41.79
2023-02-06T13:00:49.274Z,41.77
2023-02-06T13:02:57.468Z,41.31
2023-02-06T13:05:04.013Z,41.23
2023-02-06T13:07:08.681Z,40.79
2023-02-06T13:09:22.995Z,40.93
2023-02-06T13:11:30.098Z,40.28
2023-02-06T13:13:36.862Z,40.34
2023-02-06T13:15:41.548Z,40.28
2023-02-06T13:17:44.958Z,40.15
2023-02-06T13:19:47.636Z,40.38
2023-02-06T13:21:53.625Z,39.40
2023-02-06T13:24:02.001Z,38.79
2023-02-06T13:26:06.631Z,38.49
2023-02-06T13:28:14.818Z,38.92
2023-02-06T13:30:39.712Z,37.92
2023-02-06T13:32:45.116Z,37.48
2023-02-06T13:34:50.745Z,37.52
2023-02-06T13:36:53.501Z,37.79
2023-02-06T13:38:57.450Z,37.52
2023-02-06T13:41:05.662Z,37.37
2023-02-06T13:43:10.348Z,37.79
2023-02-06T13:45:19.950Z,36.33
2023-02-06T13:47:32.055Z,35.91
2023-02-06T13:49:40.142Z,35.95
2023-02-06T13:51:48.514Z,36.19
2023-02-06T13:53:56.702Z,35.43
2023-02-06T13:56:02.044Z,35.34
2023-02-06T13:58:07.396Z,34.80
2023-02-06T14:00:13.421Z,35.38
2023-02-06T14:02:23.497Z,35.25
2023-02-06T14:04:28.616Z,34.49
2023-02-06T14:06:34.487Z,34.22
2023-02-06T14:08:41.335Z,34.66
2023-02-06T14:10:52.517Z,35.04
2023-02-06T14:13:03.846Z,34.72
2023-02-06T14:15:12.720Z,34.79
2023-02-06T14:17:15.544Z,34.72
2023-02-06T14:19:20.170Z,34.71
2023-02-06T14:21:32.163Z,34.48
2023-02-06T14:23:37.661Z,34.79
2023-02-06T14:25:43.960Z,34.30
2023-02-06T14:27:50.388Z,33.64
2023-02-06T14:30:03.320Z,33.06
2023-02-06T14:32:17.449Z,32.85
2023-02-06T14:34:23.195Z,32.75
2023-02-06T14:36:37.476Z,33.08
2023-02-06T14:38:48.540Z,32.82
2023-02-06T14:40:54.060Z,33.06
2023-02-06T14:42:58.698Z,33.07
2023-02-06T14:45:05.021Z,32.73
2023-02-06T14:47:13.137Z,32.87
2023-02-06T14:49:20.751Z,32.77
2023-02-06T14:51:27.381Z,32.85
2023-02-06T14:53:35.266Z,33.07
2023-02-06T14:55:40.462Z,33.37
2023-02-06T14:57:45.538Z,33.13
2023-02-06T14:59:53.592Z,33.17
2023-02-06T15:01:57.358Z,33.11
2023-02-06T15:04:05.397Z,32.76
2023-02-06T15:06:11.127Z,32.73
2023-02-06T15:08:17.849Z,32.77
2023-02-06T15:10:30.445Z,32.87
2023-02-06T15:12:32.701Z,32.94
2023-02-06T15:14:35.518Z,32.06
2023-02-06T15:16:43.650Z,32.27
2023-02-06T15:18:45.763Z,32.49
2023-02-06T15:20:58.430Z,32.27
2023-02-06T15:23:17.652Z,32.24
2023-02-06T15:25:24.458Z,33.45
2023-02-06T15:27:32.333Z,32.78
2023-02-06T15:29:34.323Z,33.14
2023-02-06T15:31:36.655Z,33.33
2023-02-06T15:33:41.222Z,33.42
2023-02-06T15:35:50.180Z,33.74
2023-02-06T15:37:53.730Z,33.40
2023-02-06T15:40:00.176Z,32.79
2023-02-06T15:42:02.232Z,33.01
2023-02-06T15:44:12.582Z,33.48
2023-02-06T15:46:15.632Z,32.74
2023-02-06T15:48:23.725Z,32.40
2023-02-06T15:50:28.027Z,32.57
2023-02-06T15:52:35.681Z,32.05
2023-02-06T15:54:40.378Z,31.53
2023-02-06T15:56:44.095Z,32.54
2023-02-06T15:58:48.243Z,33.54
2023-02-06T16:00:54.430Z,34.20
2023-02-06T16:03:03.428Z,34.52
2023-02-06T16:05:07.412Z,35.32
2023-02-06T16:07:15.649Z,35.16
2023-02-06T16:09:21.936Z,35.12
2023-02-06T16:11:34.312Z,35.98
2023-02-06T16:13:36.784Z,35.39
2023-02-06T16:15:40.675Z,35.39
2023-02-06T16:17:42.841Z,34.99
2023-02-06T16:19:48.609Z,35.04
2023-02-06T16:22:06.449Z,35.18
2023-02-06T16:24:16.537Z,34.14
2023-02-06T16:26:21.359Z,34.52
2023-02-06T16:28:27.260Z,34.96
2023-02-06T16:30:34.787Z,34.69
2023-02-06T16:32:37.138Z,34.45
2023-02-06T16:34:41.781Z,34.40
2023-02-06T16:36:44.177Z,34.49
2023-02-06T16:38:54.111Z,34.44
2023-02-06T16:41:04.001Z,34.64
2023-02-06T16:43:11.218Z,35.29
2023-02-06T16:45:16.755Z,35.39
2023-02-06T16:47:23.221Z,35.19
2023-02-06T16:49:25.120Z,35.97
2023-02-06T16:51:30.605Z,36.05
2023-02-06T16:53:32.715Z,36.32
2023-02-06T16:55:34.708Z,36.26
2023-02-06T16:57:42.185Z,37.03
2023-02-06T16:59:46.478Z,37.13
2023-02-06T17:01:48.797Z,37.45
2023-02-06T17:03:52.670Z,37.55
2023-02-06T17:05:54.778Z,37.55
2023-02-06T17:07:57.258Z,37.91
2023-02-06T17:09:59.778Z,38.24
2023-02-06T17:12:03.836Z,37.63
2023-02-06T17:14:06.332Z,37.82
2023-02-06T17:16:17.216Z,37.63
2023-02-06T17:18:21.954Z,37.55
2023-02-06T17:20:30.997Z,38.05
2023-02-06T17:22:35.283Z,38.37
2023-02-06T17:24:37.486Z,38.12
2023-02-06T17:26:39.744Z,38.24
2023-02-06T17:28:41.742Z,38.10
2023-02-06T17:30:45.090Z,38.28
2023-02-06T17:32:47.244Z,38.20
2023-02-06T17:34:50.919Z,38.42
2023-02-06T17:36:54.823Z,38.59
2023-02-06T17:38:59.025Z,38.30
2023-02-06T17:41:01.063Z,39.29
2023-02-06T17:43:04.750Z,39.76
2023-02-06T17:45:07.595Z,39.25
2023-02-06T17:47:09.874Z,39.13
2023-02-06T17:49:12.837Z,39.80
2023-02-06T17:51:15.481Z,39.46
2023-02-06T17:53:18.436Z,39.76
2023-02-06T17:55:23.167Z,39.60
2023-02-06T17:57:25.446Z,39.73
2023-02-06T17:59:27.883Z,39.95
2023-02-06T18:01:30.631Z,40.26
2023-02-06T18:03:34.606Z,39.70
2023-02-06T18:05:38.017Z,39.92
2023-02-06T18:07:40.804Z,39.68
2023-02-06T18:09:47.741Z,40.02
2023-02-06T18:11:49.722Z,40.37
2023-02-06T18:13:51.816Z,39.91
2023-02-06T18:15:56.359Z,40.05
2023-02-06T18:17:59.705Z,39.38
2023-02-06T18:20:01.783Z,39.38
2023-02-06T18:22:03.886Z,39.89
2023-02-06T18:24:07.265Z,40.47
2023-02-06T18:26:10.195Z,40.10
2023-02-06T18:28:15.394Z,39.49
2023-02-06T18:30:17.459Z,39.88
2023-02-06T18:32:20.106Z,39.05
2023-02-06T18:34:22.165Z,39.37
2023-02-06T18:36:24.791Z,39.12
2023-02-06T18:38:26.702Z,39.04
2023-02-06T18:40:28.621Z,39.10
2023-02-06T18:42:34.036Z,39.27
2023-02-06T18:44:41.779Z,39.46
2023-02-06T18:46:43.880Z,39.61
2023-02-06T18:48:45.904Z,39.37
2023-02-06T18:50:47.796Z,39.76
2023-02-06T18:52:50.379Z,39.24
2023-02-06T18:54:52.436Z,39.80
2023-02-06T18:56:54.840Z,39.68
2023-02-06T18:58:57.160Z,40.72
2023-02-06T19:00:59.310Z,40.26
2023-02-06T19:03:02.512Z,41.00
2023-02-06T19:05:05.120Z,39.86
2023-02-06T19:07:09.244Z,40.41
2023-02-06T19:09:13.192Z,41.16
2023-02-06T19:11:15.619Z,40.70
2023-02-06T19:13:17.534Z,40.46
2023-02-06T19:15:20.072Z,40.22
2023-02-06T19:17:22.921Z,40.89
2023-02-06T19:19:24.910Z,40.45
2023-02-06T19:21:28.282Z,40.99
2023-02-06T19:23:30.241Z,40.04
2023-02-06T19:25:32.271Z,40.74
2023-02-06T19:27:34.157Z,40.75
2023-02-06T19:29:36.786Z,39.74
2023-02-06T19:31:40.672Z,40.61
2023-02-06T19:33:42.641Z,40.77
2023-02-06T19:35:44.641Z,40.13
2023-02-06T19:37:46.674Z,39.73
2023-02-06T19:39:48.594Z,40.06
2023-02-06T19:41:50.476Z,39.98
2023-02-06T19:43:54.102Z,40.05
2023-02-06T19:45:56.326Z,39.63
2023-02-06T19:47:58.284Z,39.97
2023-02-06T19:50:00.180Z,38.99
2023-02-06T19:52:02.564Z,39.67
2023-02-06T19:54:05.285Z,39.02
2023-02-06T19:56:07.810Z,39.15
2023-02-06T19:58:09.940Z,39.64
2023-02-06T20:00:15.643Z,39.40
2023-02-06T20:02:17.556Z,39.72
2023-02-06T20:04:22.909Z,39.44
2023-02-06T20:06:25.639Z,38.79
2023-02-06T20:08:28.078Z,39.12
2023-02-06T20:10:30.446Z,39.27
2023-02-06T20:12:32.398Z,39.48
2023-02-06T20:14:34.221Z,40.03
2023-02-06T20:16:39.374Z,40.08
2023-02-06T20:18:41.307Z,40.56
2023-02-06T20:20:43.203Z,40.79
2023-02-06T20:22:45.516Z,40.88
2023-02-06T20:24:47.322Z,40.74
2023-02-06T20:26:55.350Z,40.57
2023-02-06T20:29:00.743Z,41.31
2023-02-06T20:31:09.556Z,41.28
2023-02-06T20:33:12.444Z,40.99
2023-02-06T20:35:14.299Z,40.98
2023-02-06T20:37:17.725Z,41.19
2023-02-06T20:39:20.290Z,41.34
2023-02-06T20:41:24.434Z,40.79
2023-02-06T20:43:26.528Z,41.51
2023-02-06T20:45:28.541Z,42.22
2023-02-06T20:47:31.029Z,42.38
2023-02-06T20:49:32.878Z,42.05
2023-02-06T20:51:35.310Z,42.48
2023-02-06T20:53:37.187Z,42.90
2023-02-06T20:55:44.377Z,42.83
2023-02-06T20:57:46.277Z,42.58
2023-02-06T20:59:48.131Z,42.49
2023-02-06T21:01:50.356Z,43.06
2023-02-06T21:03:55.803Z,43.10
2023-02-06T21:05:59.320Z,42.69
2023-02-06T21:08:01.338Z,42.52
2023-02-06T21:10:04.399Z,42.97
2023-02-06T21:12:06.451Z,43.40
2023-02-06T21:14:09.329Z,43.01
2023-02-06T21:16:13.629Z,43.71
2023-02-06T21:18:18.499Z,43.38
2023-02-06T21:20:20.496Z,43.43
2023-02-06T21:22:22.342Z,43.10
2023-02-06T21:24:24.517Z,44.35
2023-02-06T21:26:27.785Z,44.25
2023-02-06T21:28:30.411Z,43.78
2023-02-06T21:30:32.793Z,43.90
2023-02-06T21:32:34.604Z,44.43
2023-02-06T21:34:36.520Z,44.92
2023-02-06T21:36:39.687Z,44.99
2023-02-06T21:38:42.305Z,45.48
2023-02-06T21:40:45.296Z,45.85
2023-02-06T21:42:47.130Z,46.74
2023-02-06T21:44:49.189Z,46.13
2023-02-06T21:46:51.344Z,46.53
2023-02-06T21:48:54.157Z,47.98
2023-02-06T21:50:56.955Z,48.74
2023-02-06T21:52:59.177Z,48.81
2023-02-06T21:55:01.110Z,48.26
2023-02-06T21:57:02.935Z,48.92
2023-02-06T21:59:06.524Z,49.75
2023-02-06T22:01:14.353Z,49.40
2023-02-06T22:03:16.257Z,49.63
2023-02-06T22:05:18.386Z,49.99
2023-02-06T22:07:20.296Z,49.94
2023-02-06T22:09:25.152Z,50.81
2023-02-06T22:11:28.789Z,51.19
2023-02-06T22:13:33.271Z,51.24
2023-02-06T22:15:35.746Z,51.40
2023-02-06T22:17:37.845Z,51.88
2023-02-06T22:19:40.161Z,51.96
2023-02-06T22:21:42.050Z,52.16
2023-02-06T22:23:45.312Z,52.45
2023-02-06T22:25:48.083Z,52.27
2023-02-06T22:27:50.011Z,52.73
2023-02-06T22:29:54.826Z,53.28
2023-02-06T22:31:56.664Z,53.34
2023-02-06T22:34:00.643Z,53.43
2023-02-06T22:36:05.585Z,53.46
2023-02-06T22:38:07.458Z,53.01
2023-02-06T22:40:12.556Z,53.10
2023-02-06T22:42:14.395Z,52.89
2023-02-06T22:44:18.272Z,53.28
2023-02-06T22:46:28.185Z,53.21
2023-02-06T22:48:30.190Z,53.22
2023-02-06T22:50:32.305Z,53.37
2023-02-06T22:52:37.279Z,53.51
2023-02-06T22:54:39.479Z,53.38
2023-02-06T22:56:43.785Z,53.64
2023-02-06T22:58:46.956Z,54.38
2023-02-06T23:00:49.360Z,53.70
2023-02-06T23:02:52.102Z,53.49
2023-02-06T23:04:54.539Z,54.66
2023-02-06T23:06:57.341Z,54.64
2023-02-06T23:09:00.671Z,54.82
2023-02-06T23:11:03.714Z,54.67
2023-02-06T23:13:05.734Z,54.37
2023-02-06T23:15:10.500Z,54.76
2023-02-06T23:17:12.903Z,54.37
2023-02-06T23:19:16.246Z,55.01
2023-02-06T23:21:20.968Z,55.08
2023-02-06T23:23:23.882Z,55.25
2023-02-06T23:25:25.994Z,55.32
2023-02-06T23:27:29.495Z,55.60
2023-02-06T23:29:31.627Z,56.18
2023-02-06T23:31:34.279Z,56.55
2023-02-06T23:33:37.386Z,56.65
2023-02-06T23:35:40.489Z,56.89
2023-02-06T23:37:42.981Z,56.99
2023-02-06T23:39:45.206Z,56.87
2023-02-06T23:41:47.140Z,57.20
2023-02-06T23:43:55.058Z,58.02
2023-02-06T23:45:57.056Z,57.92
2023-02-06T23:47:59.380Z,58.12
2023-02-06T23:50:01.360Z,58.23
2023-02-06T23:52:03.562Z,58.52
2023-02-06T23:54:07.620Z,58.46
2023-02-06T23:56:13.899Z,58.88
2023-02-06T23:58:18.506Z,59.24
